createdAt,value
2022-10-22T00:00:45.990Z,38.70
2022-10-22T00:03:48.163Z,40.10
2022-10-22T00:06:29.850Z,39.00
2022-10-22T00:09:13.320Z,39.10
2022-10-22T00:11:55.280Z,45.70
2022-10-22T00:14:37.463Z,45.90
2022-10-22T00:17:19.326Z,41.00
2022-10-22T00:20:01.075Z,56.70
2022-10-22T00:22:42.823Z,45.90
2022-10-22T00:25:24.770Z,54.60
2022-10-22T00:28:06.551Z,53.90
2022-10-22T00:30:48.243Z,45.60
2022-10-22T00:33:30.757Z,42.00
2022-10-22T00:36:12.955Z,43.60
2022-10-22T00:38:54.647Z,44.80
2022-10-22T00:41:36.748Z,42.80
2022-10-22T00:44:56.435Z,36.80
2022-10-22T00:47:56.756Z,40.90
2022-10-22T00:50:50.436Z,46.60
2022-10-22T00:53:37.574Z,41.50
2022-10-22T00:56:21.079Z,41.90
2022-10-22T00:59:04.092Z,43.80
2022-10-22T01:01:47.022Z,42.80
2022-10-22T01:04:29.034Z,40.90
2022-10-22T01:07:18.165Z,45.30
2022-10-22T01:10:11.654Z,41.40
2022-10-22T01:13:11.981Z,45.10
2022-10-22T01:16:10.876Z,47.10
2022-10-22T01:19:21.853Z,44.50
2022-10-22T01:22:32.729Z,43.90
2022-10-22T01:25:59.680Z,37.80
2022-10-22T01:28:58.882Z,42.50
2022-10-22T01:31:45.796Z,42.80
2022-10-22T01:34:29.738Z,42.20
2022-10-22T01:37:14.681Z,44.10
2022-10-22T01:39:59.470Z,43.90
2022-10-22T01:42:41.160Z,47.30
2022-10-22T01:45:22.954Z,40.70
2022-10-22T01:48:44.888Z,40.30
2022-10-22T01:51:51.464Z,41.30
2022-10-22T01:54:47.612Z,43.90
2022-10-22T01:57:51.166Z,42.00
2022-10-22T02:00:36.905Z,40.60
2022-10-22T02:03:26.866Z,47.40
2022-10-22T02:06:14.878Z,43.30
2022-10-22T02:08:58.713Z,42.50
2022-10-22T02:11:42.658Z,42.10
2022-10-22T02:14:28.194Z,41.60
2022-10-22T02:17:16.294Z,43.50
2022-10-22T02:20:02.525Z,40.80
2022-10-22T02:22:44.526Z,41.80
2022-10-22T02:25:32.796Z,49.90
2022-10-22T02:28:26.834Z,51.00
2022-10-22T02:31:23.682Z,42.70
2022-10-22T02:34:10.298Z,48.80
2022-10-22T02:36:53.107Z,51.40
2022-10-22T02:39:36.332Z,49.00
2022-10-22T02:42:18.534Z,46.40
2022-10-22T02:45:00.224Z,49.70
2022-10-22T02:47:41.915Z,45.90
2022-10-22T02:50:23.712Z,44.00
2022-10-22T02:53:05.399Z,45.00
2022-10-22T02:55:47.044Z,45.70
2022-10-22T02:58:29.293Z,44.60
2022-10-22T03:01:13.751Z,42.00
2022-10-22T03:03:57.903Z,57.30
2022-10-22T03:06:39.690Z,43.80
2022-10-22T03:09:24.093Z,56.80
2022-10-22T03:12:08.806Z,46.40
2022-10-22T03:14:50.498Z,41.30
2022-10-22T03:17:32.189Z,41.30
2022-10-22T03:20:13.880Z,43.80
2022-10-22T03:22:57.003Z,47.10
2022-10-22T03:25:41.899Z,42.00
2022-10-22T03:28:23.662Z,44.90
2022-10-22T03:31:05.457Z,49.00
2022-10-22T03:33:47.250Z,47.30
2022-10-22T03:36:28.939Z,53.50
2022-10-22T03:39:13.395Z,51.60
2022-10-22T03:41:55.818Z,48.60
2022-10-22T03:44:38.825Z,47.60
2022-10-22T03:47:20.720Z,52.30
2022-10-22T03:50:02.617Z,48.40
2022-10-22T03:52:44.307Z,53.20
2022-10-22T03:55:26.101Z,51.80
2022-10-22T03:58:07.792Z,50.70
2022-10-22T04:00:49.552Z,51.20
2022-10-22T04:03:31.379Z,48.20
2022-10-22T04:06:13.786Z,56.70
2022-10-22T04:08:55.649Z,55.10
2022-10-22T04:11:37.377Z,55.90
2022-10-22T04:14:19.063Z,55.70
2022-10-22T04:17:01.368Z,55.30
2022-10-22T04:19:43.165Z,54.80
2022-10-22T04:22:24.958Z,55.90
2022-10-22T04:25:06.852Z,60.10
2022-10-22T04:27:48.542Z,57.50
2022-10-22T04:30:30.234Z,54.10
2022-10-22T04:33:11.924Z,55.40
2022-10-22T04:35:53.614Z,51.50
2022-10-22T04:38:35.408Z,53.00
2022-10-22T04:41:20.071Z,49.80
2022-10-22T04:44:02.287Z,45.30
2022-10-22T04:46:44.271Z,46.20
2022-10-22T04:49:26.166Z,48.40
2022-10-22T04:52:08.061Z,57.10
2022-10-22T04:54:49.751Z,60.30
2022-10-22T04:57:32.572Z,63.90
2022-10-22T05:00:16.820Z,47.90
2022-10-22T05:02:58.511Z,48.90
2022-10-22T05:05:40.204Z,44.30
2022-10-22T05:08:21.893Z,53.40
2022-10-22T05:11:18.655Z,46.60
2022-10-22T05:14:02.752Z,46.30
2022-10-22T05:19:31.164Z,52.00
2022-10-22T05:22:12.981Z,44.80
2022-10-22T05:24:54.642Z,50.40
2022-10-22T05:27:36.841Z,54.80
2022-10-22T05:30:18.567Z,51.00
2022-10-22T05:33:00.255Z,53.20
2022-10-22T05:35:46.636Z,51.80
2022-10-22T05:38:29.369Z,55.80
2022-10-22T05:41:13.928Z,53.00
2022-10-22T05:44:00.328Z,53.90
2022-10-22T05:46:43.554Z,61.40
2022-10-22T05:49:25.658Z,57.30
2022-10-22T05:52:07.450Z,59.10
2022-10-22T05:54:49.244Z,56.80
2022-10-22T05:57:30.934Z,69.60
2022-10-22T06:00:15.784Z,58.30
2022-10-22T06:02:58.227Z,63.70
2022-10-22T06:05:40.001Z,75.70
2022-10-22T06:08:21.794Z,61.00
2022-10-22T06:11:03.499Z,62.00
2022-10-22T06:13:46.121Z,70.60
2022-10-22T06:16:30.040Z,66.90
2022-10-22T06:19:13.474Z,64.20
2022-10-22T06:21:55.470Z,62.10
2022-10-22T06:24:39.435Z,62.20
2022-10-22T06:27:23.460Z,61.00
2022-10-22T06:30:05.868Z,63.10
2022-10-22T06:32:47.558Z,64.10
2022-10-22T06:35:29.195Z,68.10
2022-10-22T06:38:11.559Z,65.60
2022-10-22T06:40:53.246Z,70.70
2022-10-22T06:43:35.039Z,63.20
2022-10-22T06:46:20.176Z,68.60
2022-10-22T06:49:03.337Z,70.70
2022-10-22T06:51:45.802Z,76.00
2022-10-22T06:54:27.641Z,68.90
2022-10-22T06:57:09.535Z,74.20
2022-10-22T06:59:51.226Z,70.30
2022-10-22T07:02:33.327Z,67.30
2022-10-22T07:05:15.035Z,74.10
2022-10-22T07:07:56.708Z,71.30
2022-10-22T07:10:38.399Z,66.30
2022-10-22T07:13:20.162Z,71.90
2022-10-22T07:16:02.396Z,68.30
2022-10-22T07:18:45.622Z,70.20
2022-10-22T07:21:28.135Z,64.30
2022-10-22T07:24:09.926Z,66.20
2022-10-22T07:26:51.721Z,71.70
2022-10-22T07:29:33.410Z,73.50
2022-10-22T07:32:15.203Z,71.50
2022-10-22T07:34:56.896Z,76.30
2022-10-22T07:37:38.755Z,78.60
2022-10-22T07:40:20.890Z,76.60
2022-10-22T07:43:02.787Z,72.40
2022-10-22T07:45:45.194Z,71.20
2022-10-22T07:48:26.987Z,73.70
2022-10-22T07:51:09.294Z,73.00
2022-10-22T07:53:51.479Z,75.30
2022-10-22T07:56:33.186Z,71.60
2022-10-22T07:59:16.004Z,82.20
2022-10-22T08:01:58.207Z,75.50
2022-10-22T08:04:40.038Z,71.50
2022-10-22T08:07:21.717Z,66.50
2022-10-22T08:10:03.997Z,67.10
2022-10-22T08:12:45.687Z,79.30
2022-10-22T08:15:27.584Z,72.10
2022-10-22T08:18:10.400Z,68.50
2022-10-22T08:20:52.909Z,72.50
2022-10-22T08:23:34.707Z,67.20
2022-10-22T08:26:16.804Z,67.70
2022-10-22T08:28:58.577Z,95.80
2022-10-22T08:31:40.491Z,64.00
2022-10-22T08:34:22.185Z,77.10
2022-10-22T08:37:03.977Z,66.90
2022-10-22T08:39:46.287Z,72.50
2022-10-22T08:42:57.156Z,64.90
2022-10-22T08:46:10.184Z,60.70
2022-10-22T08:48:57.983Z,56.90
2022-10-22T08:51:40.663Z,64.60
2022-10-22T08:54:56.218Z,63.00
2022-10-22T08:57:55.726Z,59.70
2022-10-22T09:00:46.429Z,62.60
2022-10-22T09:03:46.798Z,71.10
2022-10-22T09:06:32.440Z,62.00
2022-10-22T09:09:19.470Z,61.50
2022-10-22T09:12:03.808Z,63.20
2022-10-22T09:14:45.706Z,82.30
2022-10-22T09:17:48.594Z,72.00
2022-10-22T09:20:54.763Z,62.20
2022-10-22T09:23:58.361Z,73.80
2022-10-22T09:26:41.493Z,56.60
2022-10-22T09:29:35.063Z,60.80
2022-10-22T09:32:17.462Z,52.30
2022-10-22T09:34:59.768Z,57.00
2022-10-22T09:37:51.120Z,55.20
2022-10-22T09:40:42.887Z,59.30
2022-10-22T09:43:24.707Z,56.90
2022-10-22T09:46:14.589Z,58.20
2022-10-22T09:49:10.421Z,58.90
2022-10-22T09:52:00.631Z,51.60
2022-10-22T09:54:42.823Z,51.40
2022-10-22T09:57:25.519Z,60.90
2022-10-22T10:00:12.763Z,60.40
2022-10-22T10:02:59.483Z,69.00
2022-10-22T10:05:41.446Z,55.90
2022-10-22T10:08:24.058Z,55.00
2022-10-22T10:11:13.942Z,51.30
2022-10-22T10:14:13.290Z,49.50
2022-10-22T10:17:05.191Z,44.00
2022-10-22T10:20:03.858Z,48.00
2022-10-22T10:22:54.876Z,46.20
2022-10-22T10:25:52.029Z,49.80
2022-10-22T10:29:10.686Z,49.50
2022-10-22T10:32:07.431Z,49.40
2022-10-22T10:35:03.457Z,50.40
2022-10-22T10:37:55.594Z,48.90
2022-10-22T10:40:48.450Z,44.80
2022-10-22T10:43:45.316Z,45.50
2022-10-22T10:46:39.011Z,46.00
2022-10-22T10:49:27.227Z,49.90
2022-10-22T10:52:28.970Z,46.50
2022-10-22T10:55:22.647Z,49.00
2022-10-22T10:58:23.481Z,54.00
2022-10-22T11:01:24.758Z,49.30
2022-10-22T11:04:14.511Z,49.60
2022-10-22T11:07:11.001Z,62.70
2022-10-22T11:10:10.354Z,70.60
2022-10-22T11:12:56.345Z,57.90
2022-10-22T11:15:45.474Z,47.70
2022-10-22T11:18:42.256Z,57.70
2022-10-22T11:21:40.045Z,65.40
2022-10-22T11:24:34.469Z,65.50
2022-10-22T11:28:09.142Z,61.10
2022-10-22T11:31:11.464Z,49.70
2022-10-22T11:34:34.253Z,51.40
2022-10-22T11:37:22.281Z,49.80
2022-10-22T11:40:16.751Z,45.70
2022-10-22T11:43:06.144Z,51.30
2022-10-22T11:45:51.049Z,50.90
2022-10-22T11:48:39.987Z,47.40
2022-10-22T11:51:36.518Z,53.00
2022-10-22T11:54:44.247Z,57.50
2022-10-22T11:57:36.074Z,58.60
2022-10-22T12:00:41.749Z,51.30
2022-10-22T12:03:44.725Z,50.40
2022-10-22T12:06:50.636Z,49.00
2022-10-22T12:09:38.460Z,49.70
2022-10-22T12:12:21.668Z,56.40
2022-10-22T12:15:25.855Z,57.20
2022-10-22T12:18:07.622Z,52.00
2022-10-22T12:20:52.616Z,54.90
2022-10-22T12:23:35.741Z,45.70
2022-10-22T12:26:27.729Z,45.20
2022-10-22T12:29:13.171Z,47.10
2022-10-22T12:31:56.070Z,49.60
2022-10-22T12:34:46.001Z,49.00
2022-10-22T12:37:30.290Z,48.20
2022-10-22T12:40:25.979Z,45.30
2022-10-22T12:43:12.634Z,51.30
2022-10-22T12:45:55.386Z,50.30
2022-10-22T12:48:40.469Z,52.60
2022-10-22T12:51:22.498Z,45.30
2022-10-22T12:54:10.733Z,47.20
2022-10-22T12:56:53.888Z,43.50
2022-10-22T12:59:38.623Z,43.80
2022-10-22T13:02:24.759Z,47.20
2022-10-22T13:05:27.314Z,47.40
2022-10-22T13:08:11.951Z,49.80
2022-10-22T13:10:55.214Z,49.50
2022-10-22T13:13:36.940Z,42.30
2022-10-22T13:16:24.862Z,39.50
2022-10-22T13:19:36.268Z,50.80
2022-10-22T13:22:35.365Z,39.40
2022-10-22T13:25:17.427Z,42.10
2022-10-22T13:28:02.569Z,48.90
2022-10-22T13:30:59.548Z,45.30
2022-10-22T13:33:46.754Z,40.50
2022-10-22T13:36:29.102Z,40.30
2022-10-22T13:39:20.905Z,36.50
2022-10-22T13:42:03.005Z,38.20
2022-10-22T13:44:45.422Z,35.90
2022-10-22T13:47:30.072Z,42.50
2022-10-22T13:50:18.879Z,40.40
2022-10-22T13:53:01.337Z,43.10
2022-10-22T13:55:45.283Z,49.80
2022-10-22T13:58:27.588Z,40.80
2022-10-22T14:01:22.856Z,41.00
2022-10-22T14:04:08.197Z,41.10
2022-10-22T14:06:49.965Z,41.60
2022-10-22T14:09:31.967Z,39.60
2022-10-22T14:12:16.969Z,40.80
2022-10-22T14:14:58.953Z,44.30
2022-10-22T14:17:43.462Z,44.60
2022-10-22T14:20:29.888Z,45.20
2022-10-22T14:23:20.086Z,40.90
2022-10-22T14:26:03.205Z,43.10
2022-10-22T14:29:07.953Z,43.80
2022-10-22T14:31:47.682Z,47.90
2022-10-22T14:34:29.371Z,44.50
2022-10-22T14:37:21.104Z,52.80
2022-10-22T14:40:03.411Z,56.70
2022-10-22T14:42:47.757Z,51.10
2022-10-22T14:45:29.856Z,64.80
2022-10-22T14:48:11.504Z,56.60
2022-10-22T14:50:54.672Z,51.40
2022-10-22T14:53:36.876Z,50.30
2022-10-22T14:56:21.576Z,59.00
2022-10-22T14:59:03.430Z,64.40
2022-10-22T15:01:45.122Z,74.00
2022-10-22T15:04:28.334Z,70.90
2022-10-22T15:07:10.038Z,73.00
2022-10-22T15:09:51.936Z,70.80
2022-10-22T15:12:33.935Z,85.10
2022-10-22T15:15:17.333Z,83.40
2022-10-22T15:18:01.105Z,78.60
2022-10-22T15:20:42.896Z,77.40
2022-10-22T15:23:24.895Z,65.60
2022-10-22T15:26:08.224Z,58.40
2022-10-22T15:28:50.635Z,59.00
2022-10-22T15:31:49.842Z,78.30
2022-10-22T15:34:34.085Z,72.50
2022-10-22T15:37:15.775Z,66.20
2022-10-22T15:39:57.779Z,71.90
2022-10-22T15:42:39.804Z,61.90
2022-10-22T15:45:22.912Z,65.60
2022-10-22T15:48:05.304Z,57.80
2022-10-22T15:50:46.995Z,67.80
2022-10-22T15:53:28.686Z,66.10
2022-10-22T15:56:12.119Z,61.70
2022-10-22T15:58:59.137Z,64.70
2022-10-22T16:01:41.290Z,67.40
2022-10-22T16:04:23.010Z,60.60
2022-10-22T16:07:04.703Z,69.30
2022-10-22T16:09:46.410Z,66.20
2022-10-22T16:12:28.206Z,75.40
2022-10-22T16:15:10.508Z,69.00
2022-10-22T16:17:52.302Z,60.50
2022-10-22T16:20:39.419Z,55.70
2022-10-22T16:23:21.212Z,67.10
2022-10-22T16:26:03.007Z,68.00
2022-10-22T16:28:46.099Z,74.80
2022-10-22T16:31:28.145Z,76.40
2022-10-22T16:34:09.921Z,67.60
2022-10-22T16:36:53.794Z,63.40
2022-10-22T16:39:36.376Z,60.70
2022-10-22T16:42:18.171Z,51.30
2022-10-22T16:45:00.177Z,61.20
2022-10-22T16:47:43.299Z,60.60
2022-10-22T16:50:40.112Z,62.10
2022-10-22T16:53:21.855Z,65.00
2022-10-22T16:56:03.746Z,67.30
2022-10-22T16:58:47.953Z,70.90
2022-10-22T17:01:30.044Z,68.10
2022-10-22T17:04:11.868Z,68.00
2022-10-22T17:06:53.559Z,68.40
2022-10-22T17:09:35.362Z,57.20
2022-10-22T17:12:17.146Z,60.50
2022-10-22T17:14:58.836Z,72.30
2022-10-22T17:17:40.939Z,65.70
2022-10-22T17:20:23.857Z,67.20
2022-10-22T17:23:05.754Z,67.60
2022-10-22T17:25:47.443Z,70.40
2022-10-22T17:28:30.159Z,71.60
2022-10-22T17:31:18.435Z,65.40
2022-10-22T17:34:00.340Z,67.40
2022-10-22T17:36:43.013Z,75.30
2022-10-22T17:39:25.013Z,65.50
2022-10-22T17:42:07.011Z,74.70
2022-10-22T17:44:48.906Z,71.30
2022-10-22T17:47:31.313Z,66.20
2022-10-22T17:50:13.450Z,71.40
2022-10-22T17:52:55.515Z,77.80
2022-10-22T17:55:38.128Z,75.30
2022-10-22T17:58:20.330Z,66.80
2022-10-22T18:01:03.293Z,69.70
2022-10-22T18:03:45.453Z,73.80
2022-10-22T18:06:29.205Z,65.60
2022-10-22T18:09:17.222Z,70.40
2022-10-22T18:12:00.669Z,87.00
2022-10-22T18:14:42.354Z,101.10
2022-10-22T18:17:24.659Z,107.10
2022-10-22T18:20:07.169Z,93.20
2022-10-22T18:22:49.168Z,75.10
2022-10-22T18:25:32.181Z,88.60
2022-10-22T18:28:19.663Z,74.40
2022-10-22T18:31:07.292Z,69.00
2022-10-22T18:33:49.964Z,73.70
2022-10-22T18:36:32.267Z,82.30
2022-10-22T18:39:15.696Z,80.20
2022-10-22T18:41:57.387Z,73.10
2022-10-22T18:44:39.231Z,66.40
2022-10-22T18:47:24.050Z,68.20
2022-10-22T18:50:07.099Z,74.90
2022-10-22T18:52:49.373Z,63.50
2022-10-22T18:55:31.444Z,63.80
2022-10-22T18:58:13.168Z,65.30
2022-10-22T19:00:54.882Z,52.70
2022-10-22T19:03:36.854Z,59.20
2022-10-22T19:06:26.740Z,62.30
2022-10-22T19:09:09.285Z,61.00
2022-10-22T19:11:51.145Z,58.60
2022-10-22T19:14:33.244Z,62.30
2022-10-22T19:17:14.934Z,72.30
2022-10-22T19:19:56.579Z,58.50
2022-10-22T19:22:38.622Z,55.50
2022-10-22T19:25:20.314Z,63.50
2022-10-22T19:28:02.004Z,61.60
2022-10-22T19:30:44.830Z,77.00
2022-10-22T19:33:27.847Z,74.00
2022-10-22T19:36:12.433Z,73.90
2022-10-22T19:38:54.400Z,72.10
2022-10-22T19:41:36.398Z,75.70
2022-10-22T19:44:18.505Z,80.60
2022-10-22T19:47:00.151Z,114.90
2022-10-22T19:49:42.668Z,242.10
2022-10-22T19:52:24.395Z,214.30
2022-10-22T19:55:07.004Z,208.90
2022-10-22T19:57:48.882Z,140.10
2022-10-22T20:00:32.233Z,85.70
2022-10-22T20:03:15.046Z,234.70
2022-10-22T20:05:56.689Z,223.10
2022-10-22T20:08:39.434Z,197.10
2022-10-22T20:11:25.571Z,83.90
2022-10-22T20:14:07.652Z,66.70
2022-10-22T20:16:49.337Z,68.70
2022-10-22T20:19:32.769Z,92.40
2022-10-22T20:22:17.811Z,91.10
2022-10-22T20:25:00.759Z,131.00
2022-10-22T20:27:42.865Z,114.60
2022-10-22T20:30:24.654Z,103.00
2022-10-22T20:33:06.298Z,165.60
2022-10-22T20:35:58.480Z,131.60
2022-10-22T20:38:40.275Z,84.60
2022-10-22T20:41:23.194Z,76.00
2022-10-22T20:44:04.986Z,65.80
2022-10-22T20:46:46.759Z,66.50
2022-10-22T20:49:28.789Z,61.50
2022-10-22T20:52:11.319Z,63.10
2022-10-22T20:54:52.980Z,68.40
2022-10-22T20:57:34.669Z,76.70
2022-10-22T21:00:17.819Z,69.90
2022-10-22T21:02:59.505Z,67.70
2022-10-22T21:05:41.689Z,64.70
2022-10-22T21:08:23.480Z,66.90
2022-10-22T21:11:05.585Z,72.60
2022-10-22T21:13:47.378Z,80.30
2022-10-22T21:16:36.525Z,79.50
2022-10-22T21:19:20.039Z,82.10
2022-10-22T21:22:04.816Z,88.40
2022-10-22T21:24:57.190Z,85.30
2022-10-22T21:27:45.077Z,80.70
2022-10-22T21:30:30.391Z,66.00
2022-10-22T21:33:14.832Z,64.90
2022-10-22T21:35:59.830Z,70.20
2022-10-22T21:38:43.757Z,63.90
2022-10-22T21:41:27.273Z,64.00
2022-10-22T21:44:13.709Z,62.90
2022-10-22T21:46:57.589Z,63.40
2022-10-22T21:49:42.861Z,69.70
2022-10-22T21:52:28.061Z,74.60
2022-10-22T21:55:14.009Z,88.00
2022-10-22T21:58:04.981Z,86.30
2022-10-22T22:00:56.276Z,86.40
2022-10-22T22:03:44.483Z,75.10
2022-10-22T22:06:33.337Z,72.90
2022-10-22T22:09:17.606Z,69.80
2022-10-22T22:12:01.255Z,70.60
2022-10-22T22:14:46.119Z,72.50
2022-10-22T22:17:31.010Z,67.90
2022-10-22T22:20:15.746Z,62.00
2022-10-22T22:22:59.991Z,68.10
2022-10-22T22:25:44.762Z,67.60
2022-10-22T22:28:31.126Z,63.20
2022-10-22T22:31:18.656Z,62.20
2022-10-22T22:34:04.563Z,64.20
2022-10-22T22:36:48.497Z,71.00
2022-10-22T22:39:35.592Z,72.50
2022-10-22T22:42:18.817Z,78.00
2022-10-22T22:45:02.082Z,83.60
2022-10-22T22:47:48.129Z,94.10
2022-10-22T22:50:40.517Z,82.50
2022-10-22T22:53:24.748Z,78.00
2022-10-22T22:56:12.662Z,79.60
2022-10-22T22:58:55.433Z,66.30
2022-10-22T23:01:38.798Z,56.10
2022-10-22T23:04:24.043Z,52.90
2022-10-22T23:07:05.670Z,74.80
2022-10-22T23:09:47.411Z,58.60
2022-10-22T23:12:29.438Z,56.80
2022-10-22T23:15:11.990Z,60.40
2022-10-22T23:17:55.907Z,51.30
2022-10-22T23:20:38.724Z,50.10
2022-10-22T23:23:20.519Z,53.70
2022-10-22T23:26:02.826Z,48.70
2022-10-22T23:28:45.128Z,62.80
2022-10-22T23:31:26.923Z,66.90
2022-10-22T23:34:10.980Z,49.10
2022-10-22T23:36:53.579Z,56.30
2022-10-22T23:39:35.579Z,56.10
2022-10-22T23:42:17.373Z,53.70
2022-10-22T23:44:59.061Z,52.10
2022-10-22T23:47:40.908Z,59.70
2022-10-22T23:50:22.963Z,57.20
2022-10-22T23:53:05.159Z,59.90
2022-10-22T23:55:46.952Z,56.20
2022-10-22T23:58:28.643Z,64.10
